createdAt,value
2023-03-12T00:01:17.198Z,4.97
2023-03-12T00:03:43.704Z,4.93
2023-03-12T00:06:11.208Z,4.75
2023-03-12T00:08:37.656Z,5.00
2023-03-12T00:11:11.096Z,5.43
2023-03-12T00:13:37.464Z,4.70
2023-03-12T00:16:11.644Z,5.30
2023-03-12T00:18:38.378Z,4.60
2023-03-12T00:21:05.461Z,4.63
2023-03-12T00:23:31.866Z,5.00
2023-03-12T00:26:05.703Z,4.93
2023-03-12T00:28:32.103Z,4.93
2023-03-12T00:30:58.676Z,4.32
2023-03-12T00:33:25.879Z,4.47
2023-03-12T00:35:52.433Z,4.75
2023-03-12T00:38:18.775Z,5.00
2023-03-12T00:40:45.132Z,4.68
2023-03-12T00:43:11.454Z,4.60
2023-03-12T00:45:37.767Z,4.93
2023-03-12T00:48:04.352Z,4.88
2023-03-12T00:50:30.829Z,5.35
2023-03-12T00:52:57.208Z,5.05
2023-03-12T00:55:23.662Z,4.82
2023-03-12T00:57:50.052Z,5.07
2023-03-12T01:00:16.750Z,4.53
2023-03-12T01:02:43.215Z,4.20
2023-03-12T01:05:11.185Z,4.15
2023-03-12T01:07:37.630Z,4.40
2023-03-12T01:10:04.353Z,4.50
2023-03-12T01:12:30.771Z,4.07
2023-03-12T01:14:57.164Z,3.83
2023-03-12T01:17:23.562Z,3.80
2023-03-12T01:19:50.074Z,3.72
2023-03-12T01:22:16.388Z,3.80
2023-03-12T01:24:42.889Z,3.85
2023-03-12T01:27:09.239Z,4.15
2023-03-12T01:29:35.858Z,4.00
2023-03-12T01:32:02.238Z,4.07
2023-03-12T01:34:28.971Z,3.75
2023-03-12T01:36:55.502Z,3.58
2023-03-12T01:39:21.830Z,4.50
2023-03-12T01:41:48.178Z,3.90
2023-03-12T01:44:14.919Z,4.53
2023-03-12T01:46:43.255Z,4.07
2023-03-12T01:49:24.961Z,4.82
2023-03-12T01:51:51.309Z,4.15
2023-03-12T01:54:23.303Z,4.20
2023-03-12T01:56:49.882Z,4.03
2023-03-12T01:59:24.765Z,4.72
2023-03-12T02:01:51.455Z,4.40
2023-03-12T02:04:19.045Z,3.92
2023-03-12T02:07:04.467Z,4.22
2023-03-12T02:09:35.398Z,4.38
2023-03-12T02:14:28.253Z,4.38
2023-03-12T02:16:55.532Z,4.00
2023-03-12T02:19:34.213Z,4.72
2023-03-12T02:22:00.628Z,3.95
2023-03-12T02:24:45.903Z,4.22
2023-03-12T02:27:12.617Z,4.03
2023-03-12T02:29:40.586Z,4.20
2023-03-12T02:32:08.174Z,3.55
2023-03-12T02:34:35.859Z,3.45
2023-03-12T02:37:02.233Z,3.58
2023-03-12T02:39:28.688Z,3.42
2023-03-12T02:41:57.721Z,3.25
2023-03-12T02:44:25.352Z,3.97
2023-03-12T02:46:53.429Z,3.38
2023-03-12T02:49:20.281Z,2.92
2023-03-12T02:51:47.683Z,3.63
2023-03-12T02:54:15.065Z,3.10
2023-03-12T02:56:41.517Z,3.20
2023-03-12T02:59:08.687Z,2.83
2023-03-12T03:01:35.322Z,3.00
2023-03-12T03:04:02.759Z,3.30
2023-03-12T03:06:29.217Z,3.10
2023-03-12T03:08:55.537Z,3.38
2023-03-12T03:11:24.385Z,3.33
2023-03-12T03:13:51.478Z,3.35
2023-03-12T03:16:17.819Z,3.88
2023-03-12T03:18:44.184Z,3.30
2023-03-12T03:21:16.283Z,3.17
2023-03-12T03:23:47.261Z,3.15
2023-03-12T03:26:14.019Z,3.05
2023-03-12T03:28:40.416Z,3.00
2023-03-12T03:31:07.043Z,2.88
2023-03-12T03:33:34.992Z,2.70
2023-03-12T03:36:02.004Z,3.03
2023-03-12T03:38:29.305Z,2.75
2023-03-12T03:40:56.092Z,2.78
2023-03-12T03:43:22.753Z,2.67
2023-03-12T03:45:49.681Z,2.72
2023-03-12T03:48:15.980Z,2.47
2023-03-12T03:50:42.340Z,2.75
2023-03-12T03:53:09.341Z,2.70
2023-03-12T03:55:36.554Z,2.95
2023-03-12T03:58:02.876Z,2.95
2023-03-12T04:00:29.309Z,2.75
2023-03-12T04:02:55.747Z,2.42
2023-03-12T04:05:22.247Z,2.60
2023-03-12T04:07:48.643Z,2.97
2023-03-12T04:10:15.122Z,3.08
2023-03-12T04:12:41.471Z,3.58
2023-03-12T04:15:08.043Z,3.08
2023-03-12T04:17:34.349Z,3.00
2023-03-12T04:20:00.682Z,2.90
2023-03-12T04:22:27.261Z,3.13
2023-03-12T04:24:53.915Z,2.92
2023-03-12T04:27:20.271Z,2.92
2023-03-12T04:29:46.598Z,3.28
2023-03-12T04:32:12.914Z,3.47
2023-03-12T04:34:39.220Z,3.42
2023-03-12T04:37:05.617Z,3.40
2023-03-12T04:39:31.964Z,3.47
2023-03-12T04:41:58.328Z,3.53
2023-03-12T04:44:24.634Z,3.75
2023-03-12T04:46:51.184Z,3.80
2023-03-12T04:49:17.546Z,3.95
2023-03-12T04:51:43.858Z,3.90
2023-03-12T04:54:10.208Z,4.00
2023-03-12T04:56:36.616Z,3.90
2023-03-12T04:59:03.032Z,4.13
2023-03-12T05:01:31.634Z,3.78
2023-03-12T05:03:58.017Z,4.50
2023-03-12T05:06:24.995Z,4.38
2023-03-12T05:08:51.653Z,4.55
2023-03-12T05:11:18.481Z,4.03
2023-03-12T05:13:45.194Z,4.50
2023-03-12T05:16:12.016Z,4.63
2023-03-12T05:18:38.512Z,4.45
2023-03-12T05:21:06.708Z,4.38
2023-03-12T05:23:33.500Z,4.45
2023-03-12T05:25:59.970Z,4.30
2023-03-12T05:28:28.316Z,4.10
2023-03-12T05:30:55.888Z,4.38
2023-03-12T05:33:22.366Z,4.63
2023-03-12T05:35:48.703Z,4.20
2023-03-12T05:38:15.064Z,3.88
2023-03-12T05:40:41.452Z,4.00
2023-03-12T05:43:07.733Z,4.32
2023-03-12T05:45:34.074Z,4.22
2023-03-12T05:48:00.437Z,3.67
2023-03-12T05:50:26.828Z,3.70
2023-03-12T05:52:53.656Z,4.28
2023-03-12T05:55:20.066Z,3.63
2023-03-12T05:57:46.362Z,4.07
2023-03-12T06:00:13.925Z,3.55
2023-03-12T06:02:40.459Z,4.35
2023-03-12T06:05:07.049Z,4.20
2023-03-12T06:07:33.355Z,4.00
2023-03-12T06:09:59.947Z,3.85
2023-03-12T06:12:26.257Z,3.80
2023-03-12T06:14:52.619Z,4.72
2023-03-12T06:17:18.908Z,5.18
2023-03-12T06:19:45.297Z,4.93
2023-03-12T06:22:11.716Z,3.90
2023-03-12T06:24:38.149Z,4.47
2023-03-12T06:27:05.207Z,4.60
2023-03-12T06:29:31.587Z,4.57
2023-03-12T06:31:57.942Z,4.75
2023-03-12T06:34:24.579Z,4.40
2023-03-12T06:36:50.935Z,5.07
2023-03-12T06:39:18.324Z,4.95
2023-03-12T06:41:45.083Z,5.65
2023-03-12T06:44:11.599Z,5.32
2023-03-12T06:46:38.165Z,5.25
2023-03-12T06:49:04.607Z,5.93
2023-03-12T06:51:30.955Z,5.00
2023-03-12T06:53:57.329Z,5.15
2023-03-12T06:56:23.636Z,5.93
2023-03-12T06:58:50.197Z,5.40
2023-03-12T07:01:16.477Z,6.90
2023-03-12T07:03:43.620Z,6.85
2023-03-12T07:06:17.663Z,6.03
2023-03-12T07:08:44.137Z,6.07
2023-03-12T07:11:10.676Z,5.55
2023-03-12T07:13:37.077Z,5.80
2023-03-12T07:16:03.905Z,6.28
2023-03-12T07:18:30.312Z,5.80
2023-03-12T07:20:56.644Z,5.88
2023-03-12T07:23:23.283Z,5.95
2023-03-12T07:25:49.605Z,6.72
2023-03-12T07:28:17.130Z,6.80
2023-03-12T07:30:43.542Z,6.65
2023-03-12T07:33:11.523Z,6.85
2023-03-12T07:35:38.962Z,7.57
2023-03-12T07:38:05.852Z,7.55
2023-03-12T07:40:32.239Z,7.30
2023-03-12T07:42:58.512Z,6.63
2023-03-12T07:45:25.400Z,6.97
2023-03-12T07:47:52.037Z,6.85
2023-03-12T07:50:18.713Z,7.60
2023-03-12T07:52:45.647Z,6.95
2023-03-12T07:55:12.244Z,7.18
2023-03-12T07:57:38.964Z,7.72
2023-03-12T08:00:08.712Z,7.05
2023-03-12T08:02:35.203Z,6.88
2023-03-12T08:05:01.914Z,6.78
2023-03-12T08:07:32.233Z,8.05
2023-03-12T08:09:59.217Z,7.80
2023-03-12T08:12:25.600Z,7.70
2023-03-12T08:14:51.874Z,9.20
2023-03-12T08:17:18.378Z,7.90
2023-03-12T08:19:44.735Z,8.60
2023-03-12T08:22:11.221Z,8.68
2023-03-12T08:24:37.518Z,8.27
2023-03-12T08:27:03.886Z,8.77
2023-03-12T08:29:30.221Z,7.93
2023-03-12T08:32:04.657Z,8.65
2023-03-12T08:34:31.978Z,10.25
2023-03-12T08:36:58.281Z,8.70
2023-03-12T08:39:24.573Z,9.32
2023-03-12T08:41:55.154Z,9.63
2023-03-12T08:44:22.337Z,9.18
2023-03-12T08:46:51.403Z,11.13
2023-03-12T08:49:17.781Z,9.93
2023-03-12T08:51:44.148Z,9.90
2023-03-12T08:54:10.595Z,9.70
2023-03-12T08:56:43.081Z,10.05
2023-03-12T08:59:13.006Z,9.85
2023-03-12T09:01:41.684Z,11.07
2023-03-12T09:04:09.456Z,12.30
2023-03-12T09:06:36.161Z,11.85
2023-03-12T09:09:05.400Z,11.15
2023-03-12T09:11:32.918Z,11.70
2023-03-12T09:14:33.495Z,12.10
2023-03-12T09:16:46.144Z,12.43
2023-03-12T09:19:12.508Z,12.88
2023-03-12T09:21:40.293Z,12.88
2023-03-12T09:24:07.187Z,13.82
2023-03-12T09:26:33.832Z,12.43
2023-03-12T09:29:00.252Z,13.85
2023-03-12T09:31:26.995Z,12.60
2023-03-12T09:33:53.322Z,13.32
2023-03-12T09:36:19.693Z,13.00
2023-03-12T09:38:46.022Z,13.20
2023-03-12T09:41:32.056Z,14.25
2023-03-12T09:44:01.309Z,14.32
2023-03-12T09:46:32.436Z,15.07
2023-03-12T09:49:01.825Z,17.98
2023-03-12T09:51:39.024Z,18.33
2023-03-12T09:54:07.383Z,18.33
2023-03-12T09:56:34.629Z,17.80
2023-03-12T09:59:01.134Z,18.23
2023-03-12T10:01:33.420Z,16.95
2023-03-12T10:04:05.902Z,17.80
2023-03-12T10:06:35.609Z,18.25
2023-03-12T10:09:20.965Z,17.80
2023-03-12T10:11:47.204Z,19.65
2023-03-12T10:14:32.512Z,18.25
2023-03-12T10:17:17.593Z,17.88
2023-03-12T10:19:56.853Z,17.67
2023-03-12T10:22:23.166Z,16.65
2023-03-12T10:25:08.188Z,18.38
2023-03-12T10:27:36.982Z,17.90
2023-03-12T10:30:04.093Z,18.30
2023-03-12T10:32:39.072Z,18.17
2023-03-12T10:35:21.646Z,19.65
2023-03-12T10:37:48.215Z,17.65
2023-03-12T10:40:16.390Z,19.98
2023-03-12T10:42:43.086Z,19.20
2023-03-12T10:45:09.405Z,18.95
2023-03-12T10:47:35.851Z,19.90
2023-03-12T10:50:19.261Z,19.13
2023-03-12T10:52:47.271Z,18.65
2023-03-12T10:55:16.630Z,23.15
2023-03-12T10:57:43.061Z,20.10
2023-03-12T11:00:12.794Z,18.90
2023-03-12T11:02:41.453Z,18.30
2023-03-12T11:05:19.877Z,17.08
2023-03-12T11:07:46.282Z,18.55
2023-03-12T11:10:14.606Z,21.00
2023-03-12T11:12:51.081Z,19.05
2023-03-12T11:15:25.128Z,18.17
2023-03-12T11:17:51.652Z,16.23
2023-03-12T11:20:19.108Z,17.30
2023-03-12T11:22:45.463Z,19.27
2023-03-12T11:25:21.389Z,16.70
2023-03-12T11:27:51.403Z,16.77
2023-03-12T11:30:20.630Z,15.83
2023-03-12T11:32:48.114Z,14.05
2023-03-12T11:35:15.844Z,14.45
2023-03-12T11:37:48.554Z,12.65
2023-03-12T11:40:14.967Z,13.13
2023-03-12T11:42:52.605Z,12.50
2023-03-12T11:45:19.103Z,11.30
2023-03-12T11:47:45.555Z,11.43
2023-03-12T11:50:36.957Z,13.20
2023-03-12T11:53:09.387Z,11.68
2023-03-12T11:56:02.103Z,10.80
2023-03-12T11:58:47.196Z,9.75
2023-03-12T12:01:32.332Z,11.05
2023-03-12T12:04:18.960Z,10.00
2023-03-12T12:07:03.952Z,9.93
2023-03-12T12:09:30.288Z,10.00
2023-03-12T12:11:56.618Z,9.93
2023-03-12T12:14:33.259Z,9.27
2023-03-12T12:17:18.579Z,9.98
2023-03-12T12:20:09.385Z,9.80
2023-03-12T12:22:42.370Z,7.70
2023-03-12T12:25:25.984Z,8.30
2023-03-12T12:28:11.553Z,8.35
2023-03-12T12:30:46.208Z,9.05
2023-03-12T12:33:15.572Z,8.00
2023-03-12T12:35:43.193Z,8.68
2023-03-12T12:38:30.324Z,8.23
2023-03-12T12:41:16.999Z,10.02
2023-03-12T12:43:50.804Z,9.55
2023-03-12T12:46:18.763Z,9.32
2023-03-12T12:49:01.028Z,8.20
2023-03-12T12:51:30.428Z,7.28
2023-03-12T12:54:07.305Z,7.88
2023-03-12T12:56:53.383Z,7.85
2023-03-12T12:59:24.992Z,6.97
2023-03-12T13:01:52.607Z,6.57
2023-03-12T13:04:30.692Z,7.40
2023-03-12T13:07:24.085Z,7.05
2023-03-12T13:09:52.334Z,6.85
2023-03-12T13:12:21.362Z,6.57
2023-03-12T13:14:48.728Z,6.65
2023-03-12T13:17:27.743Z,6.85
2023-03-12T13:20:14.399Z,7.40
2023-03-12T13:22:48.418Z,7.30
2023-03-12T13:25:33.971Z,6.22
2023-03-12T13:28:01.402Z,5.97
2023-03-12T13:30:33.779Z,6.15
2023-03-12T13:33:03.169Z,6.43
2023-03-12T13:35:36.158Z,6.45
2023-03-12T13:38:04.655Z,6.75
2023-03-12T13:40:50.120Z,5.55
2023-03-12T13:43:30.225Z,5.45
2023-03-12T13:46:07.142Z,4.75
2023-03-12T13:48:34.536Z,5.53
2023-03-12T13:51:19.659Z,4.97
2023-03-12T13:53:53.809Z,7.22
2023-03-12T13:56:21.211Z,9.82
2023-03-12T13:58:47.588Z,8.52
2023-03-12T14:01:16.758Z,5.82
2023-03-12T14:03:45.587Z,4.80
2023-03-12T14:06:18.727Z,5.55
2023-03-12T14:08:54.087Z,5.47
2023-03-12T14:11:40.964Z,4.40
2023-03-12T14:14:16.186Z,4.15
2023-03-12T14:16:46.072Z,4.03
2023-03-12T14:19:13.240Z,3.97
2023-03-12T14:21:41.629Z,4.93
2023-03-12T14:24:08.610Z,4.70
2023-03-12T14:26:36.355Z,4.20
2023-03-12T14:29:06.582Z,4.60
2023-03-12T14:31:33.750Z,4.15
2023-03-12T14:34:05.820Z,5.65
2023-03-12T14:36:40.947Z,5.85
2023-03-12T14:39:27.109Z,3.95
2023-03-12T14:42:01.026Z,3.67
2023-03-12T14:44:28.613Z,3.92
2023-03-12T14:47:00.869Z,3.88
2023-03-12T14:49:30.919Z,3.70
2023-03-12T14:51:57.885Z,3.42
2023-03-12T14:54:25.836Z,3.72
2023-03-12T14:56:52.458Z,4.05
2023-03-12T14:59:32.668Z,4.80
2023-03-12T15:02:01.082Z,4.35
2023-03-12T15:04:28.011Z,4.57
2023-03-12T15:06:56.408Z,4.28
2023-03-12T15:09:26.934Z,4.30
2023-03-12T15:12:00.628Z,4.43
2023-03-12T15:14:28.595Z,4.80
2023-03-12T15:16:55.916Z,4.45
2023-03-12T15:19:26.207Z,4.70
2023-03-12T15:21:52.649Z,5.30
2023-03-12T15:24:20.580Z,4.10
2023-03-12T15:26:47.102Z,4.78
2023-03-12T15:29:27.174Z,5.15
2023-03-12T15:31:55.781Z,5.05
2023-03-12T15:34:32.669Z,4.25
2023-03-12T15:37:00.132Z,4.82
2023-03-12T15:39:37.248Z,4.05
2023-03-12T15:42:11.122Z,5.10
2023-03-12T15:44:48.303Z,4.32
2023-03-12T15:47:19.195Z,3.72
2023-03-12T15:52:24.806Z,4.97
2023-03-12T15:55:10.346Z,3.90
2023-03-12T15:57:53.195Z,3.97
2023-03-12T16:00:19.742Z,3.60
2023-03-12T16:02:56.592Z,3.30
2023-03-12T16:05:28.430Z,3.97
2023-03-12T16:07:54.916Z,3.53
2023-03-12T16:10:23.009Z,2.97
2023-03-12T16:12:49.997Z,3.90
2023-03-12T16:15:18.286Z,4.20
2023-03-12T16:17:44.877Z,3.17
2023-03-12T16:20:12.717Z,3.88
2023-03-12T16:22:39.180Z,3.67
2023-03-12T16:25:05.946Z,4.10
2023-03-12T16:27:38.867Z,4.38
2023-03-12T16:30:06.761Z,4.40
2023-03-12T16:32:33.111Z,4.28
2023-03-12T16:35:00.090Z,4.72
2023-03-12T16:37:26.745Z,4.30
2023-03-12T16:39:53.206Z,5.60
2023-03-12T16:42:20.551Z,5.82
2023-03-12T16:44:47.360Z,3.85
2023-03-12T16:47:14.434Z,3.97
2023-03-12T16:49:41.101Z,4.65
2023-03-12T16:52:21.087Z,5.03
2023-03-12T16:54:51.284Z,4.27
2023-03-12T16:57:26.538Z,5.55
2023-03-12T16:59:53.914Z,3.88
2023-03-12T17:02:21.382Z,4.88
2023-03-12T17:04:48.857Z,4.25
2023-03-12T17:07:15.381Z,3.72
2023-03-12T17:09:41.713Z,4.40
2023-03-12T17:12:15.345Z,5.18
2023-03-12T17:14:41.820Z,4.97
2023-03-12T17:17:08.898Z,3.72
2023-03-12T17:19:35.580Z,3.95
2023-03-12T17:22:01.934Z,4.60
2023-03-12T17:24:28.211Z,5.47
2023-03-12T17:26:55.536Z,4.72
2023-03-12T17:29:22.058Z,4.60
2023-03-12T17:31:48.477Z,4.72
2023-03-12T17:34:15.053Z,5.20
2023-03-12T17:36:41.555Z,3.70
2023-03-12T17:39:08.199Z,5.40
2023-03-12T17:41:35.550Z,5.95
2023-03-12T17:44:03.635Z,5.75
2023-03-12T17:46:30.711Z,6.05
2023-03-12T17:48:57.167Z,5.70
2023-03-12T17:51:23.485Z,6.05
2023-03-12T17:53:50.003Z,7.10
2023-03-12T17:56:18.003Z,5.13
2023-03-12T17:58:45.054Z,5.45
2023-03-12T18:01:13.161Z,4.70
2023-03-12T18:03:39.952Z,3.97
2023-03-12T18:06:06.557Z,4.53
2023-03-12T18:08:32.889Z,3.45
2023-03-12T18:10:59.740Z,2.90
2023-03-12T18:13:26.117Z,2.58
2023-03-12T18:15:54.001Z,1.90
2023-03-12T18:18:20.842Z,2.80
2023-03-12T18:20:47.757Z,2.90
2023-03-12T18:23:14.184Z,2.03
2023-03-12T18:25:41.146Z,2.47
2023-03-12T18:28:07.578Z,3.00
2023-03-12T18:30:34.381Z,2.58
2023-03-12T18:33:00.758Z,2.08
2023-03-12T18:35:30.467Z,3.08
2023-03-12T18:37:57.226Z,2.03
2023-03-12T18:40:23.972Z,1.98
2023-03-12T18:42:50.563Z,2.58
2023-03-12T18:45:16.899Z,3.50
2023-03-12T18:47:45.256Z,3.20
2023-03-12T18:50:12.242Z,2.15
2023-03-12T18:52:39.071Z,2.60
2023-03-12T18:55:05.592Z,3.90
2023-03-12T18:57:31.995Z,2.53
2023-03-12T18:59:59.335Z,2.35
2023-03-12T19:02:25.664Z,2.33
2023-03-12T19:04:54.205Z,2.08
2023-03-12T19:07:22.171Z,1.98
2023-03-12T19:09:48.749Z,2.22
2023-03-12T19:12:15.136Z,1.40
2023-03-12T19:14:41.608Z,2.17
2023-03-12T19:17:08.041Z,2.08
2023-03-12T19:19:34.363Z,1.73
2023-03-12T19:22:00.685Z,2.33
2023-03-12T19:24:27.107Z,2.40
2023-03-12T19:26:53.773Z,1.98
2023-03-12T19:29:20.091Z,2.42
2023-03-12T19:31:46.454Z,3.03
2023-03-12T19:34:12.922Z,3.90
2023-03-12T19:36:39.180Z,2.95
2023-03-12T19:39:15.243Z,3.38
2023-03-12T19:41:47.128Z,3.80
2023-03-12T19:44:13.401Z,3.38
2023-03-12T19:46:42.912Z,4.20
2023-03-12T19:49:09.354Z,3.83
2023-03-12T19:51:36.079Z,4.57
2023-03-12T19:54:02.413Z,6.30
2023-03-12T19:56:29.048Z,4.03
2023-03-12T19:58:55.351Z,4.45
2023-03-12T20:01:21.718Z,4.38
2023-03-12T20:03:48.113Z,4.50
2023-03-12T20:06:14.619Z,4.78
2023-03-12T20:08:40.996Z,5.22
2023-03-12T20:11:09.468Z,6.30
2023-03-12T20:13:37.965Z,4.65
2023-03-12T20:16:04.977Z,3.72
2023-03-12T20:18:31.419Z,4.88
2023-03-12T20:20:57.779Z,4.40
2023-03-12T20:23:27.062Z,4.13
2023-03-12T20:25:53.652Z,4.45
2023-03-12T20:28:20.035Z,4.63
2023-03-12T20:30:46.385Z,5.22
2023-03-12T20:33:13.011Z,4.30
2023-03-12T20:35:39.661Z,3.45
2023-03-12T20:38:06.075Z,4.25
2023-03-12T20:40:32.436Z,3.65
2023-03-12T20:42:58.852Z,5.65
2023-03-12T20:45:25.574Z,3.33
2023-03-12T20:47:53.448Z,4.45
2023-03-12T20:50:19.775Z,4.05
2023-03-12T20:52:46.100Z,3.92
2023-03-12T20:55:12.537Z,3.65
2023-03-12T20:57:38.878Z,3.10
2023-03-12T21:00:05.684Z,3.85
2023-03-12T21:02:32.111Z,3.08
2023-03-12T21:04:58.454Z,3.80
2023-03-12T21:07:24.860Z,3.60
2023-03-12T21:09:53.709Z,3.38
2023-03-12T21:12:20.058Z,3.45
2023-03-12T21:14:46.389Z,3.03
2023-03-12T21:17:13.757Z,3.17
2023-03-12T21:19:41.507Z,3.30
2023-03-12T21:22:08.387Z,3.13
2023-03-12T21:24:35.337Z,3.97
2023-03-12T21:27:01.949Z,3.47
2023-03-12T21:29:28.686Z,3.42
2023-03-12T21:31:55.078Z,3.63
2023-03-12T21:34:22.086Z,3.28
2023-03-12T21:36:48.909Z,3.72
2023-03-12T21:39:15.321Z,3.55
2023-03-12T21:41:41.633Z,3.40
2023-03-12T21:44:08.003Z,3.80
2023-03-12T21:46:34.410Z,4.32
2023-03-12T21:49:00.905Z,4.70
2023-03-12T21:51:27.258Z,4.55
2023-03-12T21:53:54.760Z,4.40
2023-03-12T21:56:21.467Z,3.53
2023-03-12T21:58:47.793Z,4.38
2023-03-12T22:01:17.819Z,4.13
2023-03-12T22:03:45.514Z,4.47
2023-03-12T22:06:12.459Z,3.95
2023-03-12T22:08:39.036Z,5.05
2023-03-12T22:11:06.531Z,3.92
2023-03-12T22:13:32.943Z,4.40
2023-03-12T22:16:00.462Z,4.45
2023-03-12T22:18:27.690Z,4.95
2023-03-12T22:20:54.898Z,4.32
2023-03-12T22:23:21.710Z,4.35
2023-03-12T22:25:48.082Z,4.90
2023-03-12T22:28:15.103Z,4.13
2023-03-12T22:30:41.431Z,4.20
2023-03-12T22:33:07.900Z,4.20
2023-03-12T22:35:34.308Z,4.15
2023-03-12T22:38:00.665Z,4.53
2023-03-12T22:40:27.187Z,4.57
2023-03-12T22:42:56.080Z,4.78
2023-03-12T22:45:22.499Z,4.68
2023-03-12T22:47:48.781Z,4.45
2023-03-12T22:50:15.135Z,5.05
2023-03-12T22:52:41.645Z,4.35
2023-03-12T22:55:08.174Z,3.60
2023-03-12T22:57:35.305Z,4.50
2023-03-12T23:00:01.708Z,4.90
2023-03-12T23:02:28.235Z,4.75
2023-03-12T23:04:54.568Z,4.60
2023-03-12T23:07:21.080Z,4.10
2023-03-12T23:09:47.461Z,4.43
2023-03-12T23:12:13.845Z,5.28
2023-03-12T23:14:40.149Z,3.97
2023-03-12T23:17:06.435Z,4.68
2023-03-12T23:19:33.596Z,4.68
2023-03-12T23:21:59.940Z,4.38
2023-03-12T23:24:26.247Z,4.97
2023-03-12T23:26:54.778Z,4.85
2023-03-12T23:29:21.052Z,4.57
2023-03-12T23:31:47.361Z,3.85
2023-03-12T23:34:13.857Z,4.20
2023-03-12T23:36:40.235Z,4.22
2023-03-12T23:39:06.564Z,4.28
2023-03-12T23:41:32.935Z,4.97
2023-03-12T23:43:59.406Z,4.63
2023-03-12T23:46:27.441Z,4.70
2023-03-12T23:48:53.892Z,4.47
2023-03-12T23:51:21.469Z,5.00
2023-03-12T23:53:49.209Z,5.15
2023-03-12T23:56:17.456Z,3.88
2023-03-12T23:58:44.655Z,4.63
